Garden City, New York
Current Conditions -  °F | °C
As of 10:51 AM on Thursday 18 Dec 2014 (Local Time) from KJFK Reporting Station
Scattered Clouds Scattered Clouds  
Wind Chill:   Ceiling: Unl
Heat Index:   Visibility: 10mi
Dew Point: -6°   Wind: 16mph
Humidity: 43%   Direction: 300°WNW
Pressure: 29.99"   Gusts: 26mph
Location:  40.73°N, 73.64°W
Report Text: KJFK 181551Z 30014G23KT 10SM SCT043 06/M06 A2999 RMK AO2 PK WND 32027/1514 SLP155 T00611056
Loading
Personal Weather Stations






























Interactive Weather Map New forecast layout! Learn more

10-Day Weather Forecast

Advertisements
Track Severe Weather on mobile